Date,TemperatureHighF,TemperatureAvgF,TemperatureLowF,DewpointHighF,DewpointAvgF,DewpointLowF,HumidityHigh,HumidityAvg,HumidityLow,PressureMaxIn,PressureMinIn,WindSpeedMaxMPH,WindSpeedAvgMPH,GustSpeedMaxMPH,PrecipitationSumIn
2013-8-1,77,67,61,65,61,58,93,82,59,30.03,29.84,3,0,14,0.02
2013-8-2,79,71,64,65,62,59,92,75,51,29.86,29.77,10,3,15,0.23
2013-8-3,76,68,61,65,61,58,91,79,59,29.85,29.77,9,2,14,0.04
2013-8-4,76,66,55,59,56,53,92,72,48,29.89,29.77,12,4,19,0.02
2013-8-5,73,63,54,55,51,44,90,68,38,30.03,29.88,17,4,25,0.00
2013-8-6,78,64,50,57,52,47,92,69,42,30.12,30.03,7,0,11,0.00
2013-8-7,77,67,56,61,56,52,93,72,42,30.17,30.09,8,0,17,0.00
2013-8-8,79,71,65,70,66,59,91,84,74,30.10,29.99,9,1,14,0.09
2013-8-9,76,73,71,73,70,68,93,90,87,30.00,29.74,6,1,12,1.81
2013-8-10,78,73,65,70,60,50,91,67,44,29.99,29.78,18,5,21,0.01
2013-8-11,76,65,52,60,54,48,92,69,48,30.07,29.98,10,2,14,0.00
2013-8-12,79,68,59,63,59,55,92,73,47,30.02,29.90,7,0,11,0.00
2013-8-13,75,67,63,66,63,60,93,86,70,29.91,29.67,4,0,8,0.02
2013-8-14,71,65,57,64,55,50,91,70,56,29.96,29.66,19,8,26,0.00
2013-8-15,73,62,50,56,52,47,91,73,48,30.11,29.96,9,2,14,0.00
2013-8-16,76,64,52,60,54,49,92,74,45,30.19,30.10,6,1,12,0.01
2013-8-17,81,67,53,62,57,50,93,72,44,30.26,30.19,4,0,8,0.01
2013-8-18,77,66,58,63,59,55,92,78,50,30.26,30.08,3,0,6,0.00
2013-8-19,76,67,57,64,59,54,92,77,54,30.08,29.96,10,2,13,0.00
2013-8-20,81,70,59,65,61,56,93,75,49,30.09,29.98,9,2,13,0.00
2013-8-21,83,71,59,66,62,56,93,75,49,30.14,30.02,9,1,11,0.01
2013-8-22,78,71,63,71,66,60,93,86,77,30.03,29.82,9,1,11,0.01
2013-8-23,77,71,62,68,60,51,89,68,48,30.09,29.81,14,3,17,0.00
2013-8-24,78,66,55,55,50,46,87,60,34,30.33,30.09,12,1,14,0.00
2013-8-25,79,65,52,60,53,47,93,68,33,30.35,30.18,7,1,11,0.00
2013-8-26,76,68,60,66,61,56,90,79,65,30.19,29.87,8,1,12,0.19
2013-8-27,84,72,68,71,67,65,92,85,62,29.87,29.80,3,0,8,0.70
2013-8-28,86,73,63,69,66,61,93,80,49,29.91,29.82,2,0,8,0.00
2013-8-29,69,65,61,66,62,56,91,88,84,30.04,29.90,5,1,12,0.01
2013-8-30,79,68,60,68,62,56,91,83,63,30.01,29.82,9,1,12,0.03
2013-8-31,77,73,69,71,69,66,92,88,82,29.83,29.77,4,0,10,0.08